sensor_id;sensor_type;location;lat;lon;timestamp;temperature;humidity
8459;DHT22;4266;48.816;9.154;2023-11-21T00:00:03;8.00;99.90
8459;DHT22;4266;48.816;9.154;2023-11-21T00:02:29;8.00;99.90
8459;DHT22;4266;48.816;9.154;2023-11-21T00:04:55;8.00;99.90
8459;DHT22;4266;48.816;9.154;2023-11-21T00:07:21;8.00;99.90
8459;DHT22;4266;48.816;9.154;2023-11-21T00:09:46;8.00;99.90
8459;DHT22;4266;48.816;9.154;2023-11-21T00:12:12;8.00;99.90
8459;DHT22;4266;48.816;9.154;2023-11-21T00:14:38;8.00;99.90
8459;DHT22;4266;48.816;9.154;2023-11-21T00:17:04;7.90;99.90
8459;DHT22;4266;48.816;9.154;2023-11-21T00:19:30;7.90;99.90
8459;DHT22;4266;48.816;9.154;2023-11-21T00:21:55;7.90;99.90
8459;DHT22;4266;48.816;9.154;2023-11-21T00:24:21;7.90;99.90
8459;DHT22;4266;48.816;9.154;2023-11-21T00:26:47;7.90;99.90
8459;DHT22;4266;48.816;9.154;2023-11-21T00:29:13;7.90;99.90
8459;DHT22;4266;48.816;9.154;2023-11-21T00:31:39;7.90;99.90
8459;DHT22;4266;48.816;9.154;2023-11-21T00:34:05;7.80;99.90
8459;DHT22;4266;48.816;9.154;2023-11-21T00:36:31;7.80;99.90
8459;DHT22;4266;48.816;9.154;2023-11-21T00:38:56;7.90;99.90
8459;DHT22;4266;48.816;9.154;2023-11-21T00:41:22;8.00;99.90
8459;DHT22;4266;48.816;9.154;2023-11-21T00:43:49;8.00;99.90
8459;DHT22;4266;48.816;9.154;2023-11-21T00:46:14;8.00;99.90
8459;DHT22;4266;48.816;9.154;2023-11-21T00:48:40;8.10;99.90
8459;DHT22;4266;48.816;9.154;2023-11-21T00:51:06;8.10;99.90
8459;DHT22;4266;48.816;9.154;2023-11-21T00:53:32;8.10;99.90
8459;DHT22;4266;48.816;9.154;2023-11-21T00:55:58;8.10;99.90
8459;DHT22;4266;48.816;9.154;2023-11-21T00:58:24;8.10;99.90
8459;DHT22;4266;48.816;9.154;2023-11-21T01:00:50;8.10;99.90
8459;DHT22;4266;48.816;9.154;2023-11-21T01:03:15;8.10;99.90
8459;DHT22;4266;48.816;9.154;2023-11-21T01:05:41;8.10;99.90
8459;DHT22;4266;48.816;9.154;2023-11-21T01:08:07;8.20;99.90
8459;DHT22;4266;48.816;9.154;2023-11-21T01:10:33;8.30;99.90
8459;DHT22;4266;48.816;9.154;2023-11-21T01:13:00;8.30;99.90
8459;DHT22;4266;48.816;9.154;2023-11-21T01:15:25;8.30;99.90
8459;DHT22;4266;48.816;9.154;2023-11-21T01:17:52;8.20;99.90
8459;DHT22;4266;48.816;9.154;2023-11-21T01:20:18;8.30;99.90
8459;DHT22;4266;48.816;9.154;2023-11-21T01:22:43;8.20;99.90
8459;DHT22;4266;48.816;9.154;2023-11-21T01:25:09;8.20;99.90
8459;DHT22;4266;48.816;9.154;2023-11-21T01:27:35;8.20;99.90
8459;DHT22;4266;48.816;9.154;2023-11-21T01:30:01;8.30;99.90
8459;DHT22;4266;48.816;9.154;2023-11-21T01:32:27;8.40;99.90
8459;DHT22;4266;48.816;9.154;2023-11-21T01:34:52;8.30;99.90
8459;DHT22;4266;48.816;9.154;2023-11-21T01:37:18;8.30;99.90
8459;DHT22;4266;48.816;9.154;2023-11-21T01:39:44;8.40;99.90
8459;DHT22;4266;48.816;9.154;2023-11-21T01:42:09;8.40;99.90
8459;DHT22;4266;48.816;9.154;2023-11-21T01:44:35;8.30;99.90
8459;DHT22;4266;48.816;9.154;2023-11-21T01:47:01;8.40;99.90
8459;DHT22;4266;48.816;9.154;2023-11-21T01:49:27;8.30;99.90
8459;DHT22;4266;48.816;9.154;2023-11-21T01:51:53;8.30;99.90
8459;DHT22;4266;48.816;9.154;2023-11-21T01:54:18;8.30;99.90
8459;DHT22;4266;48.816;9.154;2023-11-21T01:56:46;8.30;99.90
8459;DHT22;4266;48.816;9.154;2023-11-21T01:59:12;8.30;99.90
8459;DHT22;4266;48.816;9.154;2023-11-21T02:01:37;8.40;99.90
8459;DHT22;4266;48.816;9.154;2023-11-21T02:04:03;8.20;99.90
8459;DHT22;4266;48.816;9.154;2023-11-21T02:06:29;8.30;99.90
8459;DHT22;4266;48.816;9.154;2023-11-21T02:08:54;8.30;99.90
8459;DHT22;4266;48.816;9.154;2023-11-21T02:11:21;8.30;99.90
8459;DHT22;4266;48.816;9.154;2023-11-21T02:16:38;8.20;99.90
8459;DHT22;4266;48.816;9.154;2023-11-21T02:19:04;8.30;99.90
8459;DHT22;4266;48.816;9.154;2023-11-21T02:21:30;8.20;99.90
8459;DHT22;4266;48.816;9.154;2023-11-21T02:23:55;8.30;99.90
8459;DHT22;4266;48.816;9.154;2023-11-21T02:26:21;8.30;99.90
8459;DHT22;4266;48.816;9.154;2023-11-21T02:28:48;8.30;99.90
8459;DHT22;4266;48.816;9.154;2023-11-21T02:31:13;8.20;99.90
8459;DHT22;4266;48.816;9.154;2023-11-21T02:33:40;8.40;99.90
8459;DHT22;4266;48.816;9.154;2023-11-21T02:36:06;8.40;99.90
8459;DHT22;4266;48.816;9.154;2023-11-21T02:38:32;8.40;99.90
8459;DHT22;4266;48.816;9.154;2023-11-21T02:40:58;8.30;99.90
8459;DHT22;4266;48.816;9.154;2023-11-21T02:43:25;8.30;99.90
8459;DHT22;4266;48.816;9.154;2023-11-21T02:45:51;8.30;99.90
8459;DHT22;4266;48.816;9.154;2023-11-21T02:48:17;8.30;99.90
8459;DHT22;4266;48.816;9.154;2023-11-21T02:50:42;8.30;99.90
8459;DHT22;4266;48.816;9.154;2023-11-21T02:53:09;8.30;99.90
8459;DHT22;4266;48.816;9.154;2023-11-21T02:55:34;8.30;99.90
8459;DHT22;4266;48.816;9.154;2023-11-21T02:57:59;8.40;99.90
8459;DHT22;4266;48.816;9.154;2023-11-21T03:00:25;8.30;99.90
8459;DHT22;4266;48.816;9.154;2023-11-21T03:02:51;8.40;99.90
8459;DHT22;4266;48.816;9.154;2023-11-21T03:05:16;8.40;99.90
8459;DHT22;4266;48.816;9.154;2023-11-21T03:07:42;8.40;99.90
8459;DHT22;4266;48.816;9.154;2023-11-21T03:10:09;8.30;99.90
8459;DHT22;4266;48.816;9.154;2023-11-21T03:12:34;8.30;99.90
8459;DHT22;4266;48.816;9.154;2023-11-21T03:15:01;8.30;99.90
8459;DHT22;4266;48.816;9.154;2023-11-21T03:17:27;8.30;99.90
8459;DHT22;4266;48.816;9.154;2023-11-21T03:19:53;8.20;99.90
8459;DHT22;4266;48.816;9.154;2023-11-21T03:22:19;8.20;99.90
8459;DHT22;4266;48.816;9.154;2023-11-21T03:24:45;8.10;99.90
8459;DHT22;4266;48.816;9.154;2023-11-21T03:27:11;8.10;99.90
8459;DHT22;4266;48.816;9.154;2023-11-21T03:29:36;8.10;99.90
8459;DHT22;4266;48.816;9.154;2023-11-21T03:32:03;8.30;99.90
8459;DHT22;4266;48.816;9.154;2023-11-21T03:34:30;8.30;99.90
8459;DHT22;4266;48.816;9.154;2023-11-21T03:36:55;8.30;99.90
8459;DHT22;4266;48.816;9.154;2023-11-21T03:39:22;8.20;99.90
8459;DHT22;4266;48.816;9.154;2023-11-21T03:41:48;8.20;99.90
8459;DHT22;4266;48.816;9.154;2023-11-21T03:44:13;8.20;99.90
8459;DHT22;4266;48.816;9.154;2023-11-21T03:46:39;8.30;99.90
8459;DHT22;4266;48.816;9.154;2023-11-21T03:49:05;8.30;99.90
8459;DHT22;4266;48.816;9.154;2023-11-21T03:51:30;8.30;99.90
8459;DHT22;4266;48.816;9.154;2023-11-21T03:53:56;8.20;99.90
8459;DHT22;4266;48.816;9.154;2023-11-21T03:56:22;8.10;99.90
8459;DHT22;4266;48.816;9.154;2023-11-21T03:58:48;8.20;99.90
8459;DHT22;4266;48.816;9.154;2023-11-21T04:01:18;8.30;99.90
8459;DHT22;4266;48.816;9.154;2023-11-21T04:03:39;8.30;99.90
8459;DHT22;4266;48.816;9.154;2023-11-21T04:06:05;8.30;99.90
8459;DHT22;4266;48.816;9.154;2023-11-21T04:08:30;8.30;99.90
8459;DHT22;4266;48.816;9.154;2023-11-21T04:10:57;8.30;99.90
8459;DHT22;4266;48.816;9.154;2023-11-21T04:13:22;8.30;99.90
8459;DHT22;4266;48.816;9.154;2023-11-21T04:15:49;8.20;99.90
8459;DHT22;4266;48.816;9.154;2023-11-21T04:18:15;8.20;99.90
8459;DHT22;4266;48.816;9.154;2023-11-21T04:20:40;8.20;99.90
8459;DHT22;4266;48.816;9.154;2023-11-21T04:23:07;8.20;99.90
8459;DHT22;4266;48.816;9.154;2023-11-21T04:25:32;8.20;99.90
8459;DHT22;4266;48.816;9.154;2023-11-21T04:27:59;8.30;99.90
8459;DHT22;4266;48.816;9.154;2023-11-21T04:30:24;8.20;99.90
8459;DHT22;4266;48.816;9.154;2023-11-21T04:32:51;8.30;99.90
8459;DHT22;4266;48.816;9.154;2023-11-21T04:35:16;8.20;99.90
8459;DHT22;4266;48.816;9.154;2023-11-21T04:37:42;8.10;99.90
8459;DHT22;4266;48.816;9.154;2023-11-21T04:40:10;8.10;99.90
8459;DHT22;4266;48.816;9.154;2023-11-21T04:42:36;8.10;99.90
8459;DHT22;4266;48.816;9.154;2023-11-21T04:45:02;8.10;99.90
8459;DHT22;4266;48.816;9.154;2023-11-21T04:47:28;8.00;99.90
8459;DHT22;4266;48.816;9.154;2023-11-21T04:49:54;8.00;99.90
8459;DHT22;4266;48.816;9.154;2023-11-21T04:52:20;7.90;99.90
8459;DHT22;4266;48.816;9.154;2023-11-21T04:54:46;7.90;99.90
8459;DHT22;4266;48.816;9.154;2023-11-21T04:57:12;7.90;99.90
8459;DHT22;4266;48.816;9.154;2023-11-21T04:59:37;7.90;99.90
8459;DHT22;4266;48.816;9.154;2023-11-21T05:02:03;7.80;99.90
8459;DHT22;4266;48.816;9.154;2023-11-21T05:04:30;7.80;99.90
8459;DHT22;4266;48.816;9.154;2023-11-21T05:06:55;7.80;99.90
8459;DHT22;4266;48.816;9.154;2023-11-21T05:09:21;7.70;99.90
8459;DHT22;4266;48.816;9.154;2023-11-21T05:11:47;7.60;99.90
8459;DHT22;4266;48.816;9.154;2023-11-21T05:14:12;7.70;99.90
8459;DHT22;4266;48.816;9.154;2023-11-21T05:16:39;7.80;99.90
8459;DHT22;4266;48.816;9.154;2023-11-21T05:19:05;7.80;99.90
8459;DHT22;4266;48.816;9.154;2023-11-21T05:21:30;7.80;99.90
8459;DHT22;4266;48.816;9.154;2023-11-21T05:23:57;7.80;99.90
8459;DHT22;4266;48.816;9.154;2023-11-21T05:26:23;7.80;99.90
8459;DHT22;4266;48.816;9.154;2023-11-21T05:28:48;7.60;99.90
8459;DHT22;4266;48.816;9.154;2023-11-21T05:31:14;7.70;99.90
8459;DHT22;4266;48.816;9.154;2023-11-21T05:33:40;7.70;99.90
8459;DHT22;4266;48.816;9.154;2023-11-21T05:36:07;7.80;99.90
8459;DHT22;4266;48.816;9.154;2023-11-21T05:38:32;7.70;99.90
8459;DHT22;4266;48.816;9.154;2023-11-21T05:40:59;7.70;99.90
8459;DHT22;4266;48.816;9.154;2023-11-21T05:43:24;7.70;99.90
8459;DHT22;4266;48.816;9.154;2023-11-21T05:45:50;7.70;99.90
8459;DHT22;4266;48.816;9.154;2023-11-21T05:48:16;7.70;99.90
8459;DHT22;4266;48.816;9.154;2023-11-21T05:50:42;7.70;99.90
8459;DHT22;4266;48.816;9.154;2023-11-21T05:53:07;7.80;99.90
8459;DHT22;4266;48.816;9.154;2023-11-21T05:55:34;7.80;99.90
8459;DHT22;4266;48.816;9.154;2023-11-21T05:57:59;7.80;99.90
8459;DHT22;4266;48.816;9.154;2023-11-21T06:00:25;7.80;99.90
8459;DHT22;4266;48.816;9.154;2023-11-21T06:02:51;7.70;99.90
8459;DHT22;4266;48.816;9.154;2023-11-21T06:05:17;7.80;99.90
8459;DHT22;4266;48.816;9.154;2023-11-21T06:07:42;7.80;99.90
8459;DHT22;4266;48.816;9.154;2023-11-21T06:10:08;7.70;99.90
8459;DHT22;4266;48.816;9.154;2023-11-21T06:12:34;7.80;99.90
8459;DHT22;4266;48.816;9.154;2023-11-21T06:15:01;7.70;99.90
8459;DHT22;4266;48.816;9.154;2023-11-21T06:17:26;7.80;99.90
8459;DHT22;4266;48.816;9.154;2023-11-21T06:19:52;7.70;99.90
8459;DHT22;4266;48.816;9.154;2023-11-21T06:22:18;7.70;99.90
8459;DHT22;4266;48.816;9.154;2023-11-21T06:24:44;7.70;99.90
8459;DHT22;4266;48.816;9.154;2023-11-21T06:27:09;7.70;99.90
8459;DHT22;4266;48.816;9.154;2023-11-21T06:29:35;7.80;99.90
8459;DHT22;4266;48.816;9.154;2023-11-21T06:32:01;7.80;99.90
8459;DHT22;4266;48.816;9.154;2023-11-21T06:34:26;7.80;99.90
8459;DHT22;4266;48.816;9.154;2023-11-21T06:36:52;7.80;99.90
8459;DHT22;4266;48.816;9.154;2023-11-21T06:39:18;7.80;99.90
8459;DHT22;4266;48.816;9.154;2023-11-21T06:41:44;7.70;99.90
8459;DHT22;4266;48.816;9.154;2023-11-21T06:44:10;7.80;99.90
8459;DHT22;4266;48.816;9.154;2023-11-21T06:46:36;8.00;99.90
8459;DHT22;4266;48.816;9.154;2023-11-21T06:49:02;8.00;99.90
8459;DHT22;4266;48.816;9.154;2023-11-21T06:51:28;8.00;99.90
8459;DHT22;4266;48.816;9.154;2023-11-21T06:53:53;8.00;99.90
8459;DHT22;4266;48.816;9.154;2023-11-21T06:56:19;8.10;99.90
8459;DHT22;4266;48.816;9.154;2023-11-21T06:58:45;8.10;99.90
8459;DHT22;4266;48.816;9.154;2023-11-21T07:01:12;8.00;99.90
8459;DHT22;4266;48.816;9.154;2023-11-21T07:03:37;8.00;99.90
8459;DHT22;4266;48.816;9.154;2023-11-21T07:06:03;8.10;99.90
8459;DHT22;4266;48.816;9.154;2023-11-21T07:08:29;8.00;99.90
8459;DHT22;4266;48.816;9.154;2023-11-21T07:10:55;8.10;99.90
8459;DHT22;4266;48.816;9.154;2023-11-21T07:13:20;8.20;99.90
8459;DHT22;4266;48.816;9.154;2023-11-21T07:15:46;8.20;99.90
8459;DHT22;4266;48.816;9.154;2023-11-21T07:18:12;8.10;99.90
8459;DHT22;4266;48.816;9.154;2023-11-21T07:20:37;8.10;99.90
8459;DHT22;4266;48.816;9.154;2023-11-21T07:23:03;8.10;99.90
8459;DHT22;4266;48.816;9.154;2023-11-21T07:25:29;8.10;99.90
8459;DHT22;4266;48.816;9.154;2023-11-21T07:27:54;8.20;99.90
8459;DHT22;4266;48.816;9.154;2023-11-21T07:30:20;8.20;99.90
8459;DHT22;4266;48.816;9.154;2023-11-21T07:32:46;8.10;99.90
8459;DHT22;4266;48.816;9.154;2023-11-21T07:35:11;8.20;99.90
8459;DHT22;4266;48.816;9.154;2023-11-21T07:37:37;8.30;99.90
8459;DHT22;4266;48.816;9.154;2023-11-21T07:40:05;8.10;99.90
8459;DHT22;4266;48.816;9.154;2023-11-21T07:42:31;8.10;99.90
8459;DHT22;4266;48.816;9.154;2023-11-21T07:44:57;8.20;99.90
8459;DHT22;4266;48.816;9.154;2023-11-21T07:47:22;8.30;99.90
8459;DHT22;4266;48.816;9.154;2023-11-21T07:49:48;8.50;99.90
8459;DHT22;4266;48.816;9.154;2023-11-21T07:52:14;8.50;99.90
8459;DHT22;4266;48.816;9.154;2023-11-21T07:54:40;8.50;99.90
8459;DHT22;4266;48.816;9.154;2023-11-21T07:57:06;8.60;99.90
8459;DHT22;4266;48.816;9.154;2023-11-21T07:59:32;8.70;99.90
8459;DHT22;4266;48.816;9.154;2023-11-21T08:01:57;8.70;99.90
8459;DHT22;4266;48.816;9.154;2023-11-21T08:04:24;8.60;99.90
8459;DHT22;4266;48.816;9.154;2023-11-21T08:06:49;8.60;99.90
8459;DHT22;4266;48.816;9.154;2023-11-21T08:09:16;8.80;99.90
8459;DHT22;4266;48.816;9.154;2023-11-21T08:11:42;8.80;99.90
8459;DHT22;4266;48.816;9.154;2023-11-21T08:14:08;8.80;99.90
8459;DHT22;4266;48.816;9.154;2023-11-21T08:16:33;8.90;99.90
8459;DHT22;4266;48.816;9.154;2023-11-21T08:19:00;9.10;99.90
8459;DHT22;4266;48.816;9.154;2023-11-21T08:21:26;9.10;99.90
8459;DHT22;4266;48.816;9.154;2023-11-21T08:23:53;9.20;99.90
8459;DHT22;4266;48.816;9.154;2023-11-21T08:26:20;9.20;99.90
8459;DHT22;4266;48.816;9.154;2023-11-21T08:28:45;9.20;99.90
8459;DHT22;4266;48.816;9.154;2023-11-21T08:31:11;9.30;99.90
8459;DHT22;4266;48.816;9.154;2023-11-21T08:33:37;9.60;99.90
8459;DHT22;4266;48.816;9.154;2023-11-21T08:36:06;9.50;99.90
8459;DHT22;4266;48.816;9.154;2023-11-21T08:38:29;10.20;99.90
8459;DHT22;4266;48.816;9.154;2023-11-21T08:40:56;10.30;99.90
8459;DHT22;4266;48.816;9.154;2023-11-21T08:43:22;10.30;99.90
8459;DHT22;4266;48.816;9.154;2023-11-21T08:45:47;10.60;98.60
8459;DHT22;4266;48.816;9.154;2023-11-21T08:48:14;11.20;97.90
8459;DHT22;4266;48.816;9.154;2023-11-21T08:50:40;11.50;96.30
8459;DHT22;4266;48.816;9.154;2023-11-21T08:53:07;12.00;96.00
8459;DHT22;4266;48.816;9.154;2023-11-21T08:55:32;12.00;96.00
8459;DHT22;4266;48.816;9.154;2023-11-21T08:57:58;11.80;96.70
8459;DHT22;4266;48.816;9.154;2023-11-21T09:00:24;11.30;97.20
8459;DHT22;4266;48.816;9.154;2023-11-21T09:02:49;11.00;97.20
8459;DHT22;4266;48.816;9.154;2023-11-21T09:05:15;10.90;97.20
8459;DHT22;4266;48.816;9.154;2023-11-21T09:07:41;10.80;97.30
8459;DHT22;4266;48.816;9.154;2023-11-21T09:10:08;11.50;98.30
8459;DHT22;4266;48.816;9.154;2023-11-21T09:12:35;11.60;96.00
8459;DHT22;4266;48.816;9.154;2023-11-21T09:15:03;11.60;94.90
8459;DHT22;4266;48.816;9.154;2023-11-21T09:17:28;11.60;94.80
8459;DHT22;4266;48.816;9.154;2023-11-21T09:19:53;11.60;95.90
8459;DHT22;4266;48.816;9.154;2023-11-21T09:22:20;11.70;96.60
8459;DHT22;4266;48.816;9.154;2023-11-21T09:24:45;11.70;96.60
8459;DHT22;4266;48.816;9.154;2023-11-21T09:27:12;11.50;94.30
8459;DHT22;4266;48.816;9.154;2023-11-21T09:29:37;11.40;94.20
8459;DHT22;4266;48.816;9.154;2023-11-21T09:32:05;11.30;97.00
8459;DHT22;4266;48.816;9.154;2023-11-21T09:34:33;11.30;97.80
8459;DHT22;4266;48.816;9.154;2023-11-21T09:36:58;11.20;97.70
8459;DHT22;4266;48.816;9.154;2023-11-21T09:39:24;11.20;97.10
8459;DHT22;4266;48.816;9.154;2023-11-21T09:41:51;11.20;97.00
8459;DHT22;4266;48.816;9.154;2023-11-21T09:44:18;11.10;96.80
8459;DHT22;4266;48.816;9.154;2023-11-21T09:46:43;11.00;97.20
8459;DHT22;4266;48.816;9.154;2023-11-21T09:49:10;11.00;97.00
8459;DHT22;4266;48.816;9.154;2023-11-21T09:51:36;11.00;99.60
8459;DHT22;4266;48.816;9.154;2023-11-21T09:54:03;10.90;99.40
8459;DHT22;4266;48.816;9.154;2023-11-21T09:56:28;10.90;99.50
8459;DHT22;4266;48.816;9.154;2023-11-21T09:58:54;11.00;99.20
8459;DHT22;4266;48.816;9.154;2023-11-21T10:01:20;10.80;99.10
8459;DHT22;4266;48.816;9.154;2023-11-21T10:03:46;10.90;99.90
8459;DHT22;4266;48.816;9.154;2023-11-21T10:06:12;10.90;99.90
8459;DHT22;4266;48.816;9.154;2023-11-21T10:08:38;10.70;99.90
8459;DHT22;4266;48.816;9.154;2023-11-21T10:11:05;10.60;99.90
8459;DHT22;4266;48.816;9.154;2023-11-21T10:13:31;10.60;99.90
8459;DHT22;4266;48.816;9.154;2023-11-21T10:15:57;10.70;99.90
8459;DHT22;4266;48.816;9.154;2023-11-21T10:18:23;10.50;99.90
8459;DHT22;4266;48.816;9.154;2023-11-21T10:20:49;10.50;99.90
8459;DHT22;4266;48.816;9.154;2023-11-21T10:23:20;10.50;99.90
8459;DHT22;4266;48.816;9.154;2023-11-21T10:25:45;10.40;99.90
8459;DHT22;4266;48.816;9.154;2023-11-21T10:28:11;10.50;99.90
8459;DHT22;4266;48.816;9.154;2023-11-21T10:30:37;10.30;99.90
8459;DHT22;4266;48.816;9.154;2023-11-21T10:33:06;10.30;99.90
8459;DHT22;4266;48.816;9.154;2023-11-21T10:35:48;10.30;99.90
8459;DHT22;4266;48.816;9.154;2023-11-21T10:38:14;10.40;99.90
8459;DHT22;4266;48.816;9.154;2023-11-21T10:40:41;10.40;99.90
8459;DHT22;4266;48.816;9.154;2023-11-21T10:43:06;10.40;99.90
8459;DHT22;4266;48.816;9.154;2023-11-21T10:45:31;10.60;99.90
8459;DHT22;4266;48.816;9.154;2023-11-21T10:47:57;10.60;99.90
8459;DHT22;4266;48.816;9.154;2023-11-21T10:50:24;10.90;99.90
8459;DHT22;4266;48.816;9.154;2023-11-21T10:52:49;10.90;99.90
8459;DHT22;4266;48.816;9.154;2023-11-21T10:55:16;11.40;98.40
8459;DHT22;4266;48.816;9.154;2023-11-21T10:57:42;12.50;95.70
8459;DHT22;4266;48.816;9.154;2023-11-21T11:00:09;12.60;95.90
8459;DHT22;4266;48.816;9.154;2023-11-21T11:02:35;13.40;93.70
8459;DHT22;4266;48.816;9.154;2023-11-21T11:05:01;13.10;91.00
8459;DHT22;4266;48.816;9.154;2023-11-21T11:07:27;12.10;94.40
8459;DHT22;4266;48.816;9.154;2023-11-21T11:09:54;12.10;94.40
8459;DHT22;4266;48.816;9.154;2023-11-21T11:12:20;12.00;95.30
8459;DHT22;4266;48.816;9.154;2023-11-21T11:14:45;12.30;97.00
8459;DHT22;4266;48.816;9.154;2023-11-21T11:17:11;12.30;94.80
8459;DHT22;4266;48.816;9.154;2023-11-21T11:19:37;12.70;96.20
8459;DHT22;4266;48.816;9.154;2023-11-21T11:22:08;12.70;96.20
8459;DHT22;4266;48.816;9.154;2023-11-21T11:24:56;13.20;93.50
8459;DHT22;4266;48.816;9.154;2023-11-21T11:27:40;13.60;91.50
8459;DHT22;4266;48.816;9.154;2023-11-21T11:30:56;14.20;90.40
8459;DHT22;4266;48.816;9.154;2023-11-21T11:33:06;14.20;89.80
8459;DHT22;4266;48.816;9.154;2023-11-21T11:35:33;13.90;88.60
8459;DHT22;4266;48.816;9.154;2023-11-21T11:37:56;13.70;90.40
8459;DHT22;4266;48.816;9.154;2023-11-21T11:40:22;13.80;90.90
8459;DHT22;4266;48.816;9.154;2023-11-21T11:42:55;13.50;91.00
8459;DHT22;4266;48.816;9.154;2023-11-21T11:45:20;13.50;91.00
8459;DHT22;4266;48.816;9.154;2023-11-21T11:47:47;13.40;91.00
8459;DHT22;4266;48.816;9.154;2023-11-21T11:50:12;13.30;91.00
8459;DHT22;4266;48.816;9.154;2023-11-21T11:52:45;13.30;91.20
8459;DHT22;4266;48.816;9.154;2023-11-21T11:55:10;13.10;90.70
8459;DHT22;4266;48.816;9.154;2023-11-21T11:57:35;12.90;91.00
8459;DHT22;4266;48.816;9.154;2023-11-21T12:00:17;12.60;91.20
8459;DHT22;4266;48.816;9.154;2023-11-21T12:02:44;12.60;91.70
8459;DHT22;4266;48.816;9.154;2023-11-21T12:05:11;12.80;91.60
8459;DHT22;4266;48.816;9.154;2023-11-21T12:07:43;12.70;92.00
8459;DHT22;4266;48.816;9.154;2023-11-21T12:10:10;12.60;91.90
8459;DHT22;4266;48.816;9.154;2023-11-21T12:12:34;12.60;92.00
8459;DHT22;4266;48.816;9.154;2023-11-21T12:15:00;12.20;92.40
8459;DHT22;4266;48.816;9.154;2023-11-21T12:17:26;12.20;92.40
8459;DHT22;4266;48.816;9.154;2023-11-21T12:19:52;12.10;93.30
8459;DHT22;4266;48.816;9.154;2023-11-21T12:22:18;12.10;93.30
8459;DHT22;4266;48.816;9.154;2023-11-21T12:24:44;12.10;95.10
8459;DHT22;4266;48.816;9.154;2023-11-21T12:27:10;11.90;96.10
8459;DHT22;4266;48.816;9.154;2023-11-21T12:29:36;11.90;96.10
8459;DHT22;4266;48.816;9.154;2023-11-21T12:32:02;11.70;97.50
8459;DHT22;4266;48.816;9.154;2023-11-21T12:34:28;11.50;98.90
8459;DHT22;4266;48.816;9.154;2023-11-21T12:36:53;11.70;97.30
8459;DHT22;4266;48.816;9.154;2023-11-21T12:39:20;11.40;99.20
8459;DHT22;4266;48.816;9.154;2023-11-21T12:41:46;11.50;98.30
8459;DHT22;4266;48.816;9.154;2023-11-21T12:44:13;11.80;98.60
8459;DHT22;4266;48.816;9.154;2023-11-21T12:46:40;11.90;98.70
8459;DHT22;4266;48.816;9.154;2023-11-21T12:49:04;13.90;92.60
8459;DHT22;4266;48.816;9.154;2023-11-21T12:51:30;16.70;80.60
8459;DHT22;4266;48.816;9.154;2023-11-21T12:53:56;16.60;80.00
8459;DHT22;4266;48.816;9.154;2023-11-21T12:56:22;16.70;76.40
8459;DHT22;4266;48.816;9.154;2023-11-21T12:58:49;17.20;76.90
8459;DHT22;4266;48.816;9.154;2023-11-21T13:01:16;16.90;76.20
8459;DHT22;4266;48.816;9.154;2023-11-21T13:03:42;15.80;79.70
8459;DHT22;4266;48.816;9.154;2023-11-21T13:06:09;15.40;78.30
8459;DHT22;4266;48.816;9.154;2023-11-21T13:08:34;15.30;78.00
8459;DHT22;4266;48.816;9.154;2023-11-21T13:11:00;14.70;77.20
8459;DHT22;4266;48.816;9.154;2023-11-21T13:13:28;13.20;77.60
8459;DHT22;4266;48.816;9.154;2023-11-21T13:15:56;13.20;77.60
8459;DHT22;4266;48.816;9.154;2023-11-21T13:18:23;12.70;81.90
8459;DHT22;4266;48.816;9.154;2023-11-21T13:20:49;11.90;93.10
8459;DHT22;4266;48.816;9.154;2023-11-21T13:23:14;11.90;93.10
8459;DHT22;4266;48.816;9.154;2023-11-21T13:25:40;11.70;94.90
8459;DHT22;4266;48.816;9.154;2023-11-21T13:28:07;11.40;96.20
8459;DHT22;4266;48.816;9.154;2023-11-21T13:30:33;11.30;97.00
8459;DHT22;4266;48.816;9.154;2023-11-21T13:33:00;11.00;98.20
8459;DHT22;4266;48.816;9.154;2023-11-21T13:35:28;10.80;99.00
8459;DHT22;4266;48.816;9.154;2023-11-21T13:37:56;10.60;99.90
8459;DHT22;4266;48.816;9.154;2023-11-21T13:40:22;10.50;99.90
8459;DHT22;4266;48.816;9.154;2023-11-21T13:42:49;10.40;99.90
8459;DHT22;4266;48.816;9.154;2023-11-21T13:45:14;10.40;99.90
8459;DHT22;4266;48.816;9.154;2023-11-21T13:47:40;10.40;99.90
8459;DHT22;4266;48.816;9.154;2023-11-21T13:50:06;10.30;99.90
8459;DHT22;4266;48.816;9.154;2023-11-21T13:52:32;10.20;99.90
8459;DHT22;4266;48.816;9.154;2023-11-21T13:54:58;10.20;99.90
8459;DHT22;4266;48.816;9.154;2023-11-21T13:57:24;10.20;99.90
8459;DHT22;4266;48.816;9.154;2023-11-21T13:59:49;10.20;99.90
8459;DHT22;4266;48.816;9.154;2023-11-21T14:02:15;10.20;99.90
8459;DHT22;4266;48.816;9.154;2023-11-21T14:04:42;10.10;99.90
8459;DHT22;4266;48.816;9.154;2023-11-21T14:07:14;10.10;99.90
8459;DHT22;4266;48.816;9.154;2023-11-21T14:09:46;10.10;99.90
8459;DHT22;4266;48.816;9.154;2023-11-21T14:12:12;10.10;99.90
8459;DHT22;4266;48.816;9.154;2023-11-21T14:14:37;10.00;99.90
8459;DHT22;4266;48.816;9.154;2023-11-21T14:17:03;10.00;99.90
8459;DHT22;4266;48.816;9.154;2023-11-21T14:19:29;9.80;99.90
8459;DHT22;4266;48.816;9.154;2023-11-21T14:21:55;9.80;99.90
8459;DHT22;4266;48.816;9.154;2023-11-21T14:24:21;9.80;99.90
8459;DHT22;4266;48.816;9.154;2023-11-21T14:26:47;9.60;99.90
8459;DHT22;4266;48.816;9.154;2023-11-21T14:29:15;9.60;99.90
8459;DHT22;4266;48.816;9.154;2023-11-21T14:31:40;9.60;99.90
8459;DHT22;4266;48.816;9.154;2023-11-21T14:34:05;9.50;99.90
8459;DHT22;4266;48.816;9.154;2023-11-21T14:36:32;9.40;99.90
8459;DHT22;4266;48.816;9.154;2023-11-21T14:38:58;9.40;99.90
8459;DHT22;4266;48.816;9.154;2023-11-21T14:41:24;9.40;99.90
8459;DHT22;4266;48.816;9.154;2023-11-21T14:43:49;9.50;99.90
8459;DHT22;4266;48.816;9.154;2023-11-21T14:46:15;9.50;99.90
8459;DHT22;4266;48.816;9.154;2023-11-21T14:48:41;9.50;99.90
8459;DHT22;4266;48.816;9.154;2023-11-21T14:51:08;9.60;99.90
8459;DHT22;4266;48.816;9.154;2023-11-21T14:53:39;9.60;99.90
8459;DHT22;4266;48.816;9.154;2023-11-21T14:56:09;9.60;99.90
8459;DHT22;4266;48.816;9.154;2023-11-21T14:58:34;9.50;99.90
8459;DHT22;4266;48.816;9.154;2023-11-21T15:01:00;9.50;99.90
8459;DHT22;4266;48.816;9.154;2023-11-21T15:03:26;9.50;99.90
8459;DHT22;4266;48.816;9.154;2023-11-21T15:06:03;9.40;99.90
8459;DHT22;4266;48.816;9.154;2023-11-21T15:08:35;9.40;99.90
8459;DHT22;4266;48.816;9.154;2023-11-21T15:11:01;9.30;99.90
8459;DHT22;4266;48.816;9.154;2023-11-21T15:13:27;9.30;99.90
8459;DHT22;4266;48.816;9.154;2023-11-21T15:15:54;9.40;99.90
8459;DHT22;4266;48.816;9.154;2023-11-21T15:18:20;9.40;99.90
8459;DHT22;4266;48.816;9.154;2023-11-21T15:20:45;9.40;99.90
8459;DHT22;4266;48.816;9.154;2023-11-21T15:23:17;9.30;99.90
8459;DHT22;4266;48.816;9.154;2023-11-21T15:25:42;9.30;99.90
8459;DHT22;4266;48.816;9.154;2023-11-21T15:28:10;9.30;99.90
8459;DHT22;4266;48.816;9.154;2023-11-21T15:30:35;9.30;99.90
8459;DHT22;4266;48.816;9.154;2023-11-21T15:33:02;9.20;99.90
8459;DHT22;4266;48.816;9.154;2023-11-21T15:35:27;9.20;99.90
8459;DHT22;4266;48.816;9.154;2023-11-21T15:37:54;9.20;99.90
8459;DHT22;4266;48.816;9.154;2023-11-21T15:40:20;9.20;99.90
8459;DHT22;4266;48.816;9.154;2023-11-21T15:42:46;9.10;99.90
8459;DHT22;4266;48.816;9.154;2023-11-21T15:45:12;9.10;99.90
8459;DHT22;4266;48.816;9.154;2023-11-21T15:47:38;9.10;99.90
8459;DHT22;4266;48.816;9.154;2023-11-21T15:50:05;9.10;99.90
8459;DHT22;4266;48.816;9.154;2023-11-21T15:52:31;8.90;99.90
8459;DHT22;4266;48.816;9.154;2023-11-21T15:54:57;9.00;99.90
8459;DHT22;4266;48.816;9.154;2023-11-21T15:57:23;8.90;99.90
8459;DHT22;4266;48.816;9.154;2023-11-21T15:59:48;8.90;99.90
8459;DHT22;4266;48.816;9.154;2023-11-21T16:02:15;8.90;99.90
8459;DHT22;4266;48.816;9.154;2023-11-21T16:04:40;8.90;99.90
8459;DHT22;4266;48.816;9.154;2023-11-21T16:07:06;8.90;99.90